FQCH

Chimoio Airport

Chimoio, Mozambique
METAR FQCH 220900Z 07006KT 9999 BKN015 24/16 Q1023
Observed Flight Rules
May-22 @ 09:00 UTC (an hour ago) Marginal Visual Flight Rules
Wind Visibility Clouds
70° at 6 knots 10,000+ meters
  • Broken at 1,500' AGL
Temperatures Readings
Current 24°C / 75°F
Dewpoint 16°C / 61°F
Humidity 61%
Altimeter 30.21" Hg
Pressure 1023 hPa
Elevation 732
METAR FQCH 220900Z 07006KT 9999 BKN015 24/16 Q1023
Observed Flight Rules
May-22 @ 09:00 UTC
(an hour ago)
MVFR
Wind Visibility
70° at 6 knots 10,000+ meters
Clouds
  • Broken at 1,500' AGL
Temperature Dewpoint
24°C / 75°F 16°C / 61°F
Humidity Altimeter Pressure
61% 30.21" Hg 1023 hPa